createdAt,value
2023-03-10T00:01:24.140Z,1.27
2023-03-10T00:03:53.381Z,1.85
2023-03-10T00:06:24.373Z,1.90
2023-03-10T00:08:53.089Z,1.33
2023-03-10T00:11:20.993Z,1.45
2023-03-10T00:13:48.842Z,1.30
2023-03-10T00:16:28.460Z,1.38
2023-03-10T00:18:56.711Z,1.80
2023-03-10T00:21:27.954Z,1.67
2023-03-10T00:23:56.132Z,1.48
2023-03-10T00:26:26.098Z,1.67
2023-03-10T00:28:54.639Z,1.60
2023-03-10T00:31:26.425Z,1.40
2023-03-10T00:33:56.131Z,1.65
2023-03-10T00:36:26.444Z,1.60
2023-03-10T00:38:56.117Z,1.58
2023-03-10T00:41:26.730Z,1.48
2023-03-10T00:43:54.622Z,1.65
2023-03-10T00:46:22.405Z,1.50
2023-03-10T00:48:51.145Z,1.73
2023-03-10T00:51:20.726Z,1.77
2023-03-10T00:53:49.655Z,1.33
2023-03-10T00:56:20.864Z,1.85
2023-03-10T00:58:56.149Z,1.67
2023-03-10T01:01:30.658Z,1.60
2023-03-10T01:04:01.688Z,1.70
2023-03-10T01:06:29.546Z,1.83
2023-03-10T01:08:57.577Z,1.67
2023-03-10T01:11:29.081Z,1.38
2023-03-10T01:14:00.680Z,1.75
2023-03-10T01:16:29.610Z,1.98
2023-03-10T01:18:58.235Z,1.50
2023-03-10T01:21:32.652Z,1.60
2023-03-10T01:24:01.208Z,1.83
2023-03-10T01:26:29.991Z,1.50
2023-03-10T01:28:57.722Z,1.50
2023-03-10T01:31:25.793Z,1.10
2023-03-10T01:33:53.484Z,1.63
2023-03-10T01:36:26.254Z,1.27
2023-03-10T01:38:55.529Z,1.55
2023-03-10T01:41:23.993Z,1.73
2023-03-10T01:43:56.679Z,1.42
2023-03-10T01:46:44.835Z,1.55
2023-03-10T01:49:44.687Z,1.67
2023-03-10T01:52:17.730Z,1.65
2023-03-10T01:54:56.600Z,1.70
2023-03-10T01:57:30.010Z,1.77
2023-03-10T01:59:59.300Z,1.52
2023-03-10T02:02:33.597Z,1.70
2023-03-10T02:05:02.554Z,1.45
2023-03-10T02:07:35.889Z,1.63
2023-03-10T02:14:37.644Z,1.58
2023-03-10T02:17:09.092Z,1.38
2023-03-10T02:20:08.153Z,1.80
2023-03-10T02:22:38.128Z,1.52
2023-03-10T02:25:26.474Z,1.52
2023-03-10T02:27:54.716Z,1.70
2023-03-10T02:30:44.744Z,1.60
2023-03-10T02:33:33.440Z,1.38
2023-03-10T02:36:20.277Z,1.48
2023-03-10T02:38:48.877Z,1.35
2023-03-10T02:41:20.359Z,1.42
2023-03-10T02:43:49.785Z,1.63
2023-03-10T02:46:24.283Z,1.50
2023-03-10T02:48:52.025Z,1.60
2023-03-10T02:51:30.884Z,1.50
2023-03-10T02:54:02.065Z,1.52
2023-03-10T02:56:32.528Z,1.67
2023-03-10T02:59:01.572Z,1.80
2023-03-10T03:01:32.827Z,1.40
2023-03-10T03:04:01.677Z,1.60
2023-03-10T03:06:30.180Z,1.70
2023-03-10T03:08:57.964Z,1.60
2023-03-10T03:11:27.150Z,1.70
2023-03-10T03:13:55.050Z,1.70
2023-03-10T03:16:24.007Z,1.73
2023-03-10T03:18:55.865Z,1.70
2023-03-10T03:21:25.366Z,1.60
2023-03-10T03:23:55.032Z,1.70
2023-03-10T03:26:26.994Z,1.60
2023-03-10T03:29:15.285Z,1.63
2023-03-10T03:31:43.881Z,1.80
2023-03-10T03:34:17.094Z,1.98
2023-03-10T03:36:47.566Z,1.63
2023-03-10T03:39:19.994Z,1.83
2023-03-10T03:41:53.520Z,1.58
2023-03-10T03:44:22.107Z,1.65
2023-03-10T03:46:51.048Z,1.80
2023-03-10T03:49:18.940Z,2.00
2023-03-10T03:51:47.541Z,1.67
2023-03-10T03:54:15.270Z,1.65
2023-03-10T03:56:43.442Z,1.90
2023-03-10T03:59:13.834Z,1.90
2023-03-10T04:01:42.112Z,1.55
2023-03-10T04:04:10.310Z,1.98
2023-03-10T04:06:38.060Z,1.80
2023-03-10T04:09:10.548Z,1.90
2023-03-10T04:11:39.998Z,1.65
2023-03-10T04:14:08.656Z,1.70
2023-03-10T04:16:36.756Z,1.73
2023-03-10T04:19:07.998Z,1.60
2023-03-10T04:21:40.418Z,1.63
2023-03-10T04:24:09.669Z,1.77
2023-03-10T04:26:38.467Z,1.60
2023-03-10T04:29:07.216Z,1.50
2023-03-10T04:31:37.709Z,1.55
2023-03-10T04:34:10.516Z,1.80
2023-03-10T04:36:39.672Z,1.80
2023-03-10T04:39:10.036Z,2.00
2023-03-10T04:41:37.898Z,1.80
2023-03-10T04:44:06.231Z,1.70
2023-03-10T04:46:35.327Z,1.65
2023-03-10T04:49:03.424Z,2.00
2023-03-10T04:51:31.350Z,1.80
2023-03-10T04:54:00.579Z,1.75
2023-03-10T04:56:32.230Z,1.60
2023-03-10T04:59:01.110Z,1.83
2023-03-10T05:01:33.182Z,1.80
2023-03-10T05:04:06.377Z,1.88
2023-03-10T05:06:35.827Z,1.70
2023-03-10T05:09:24.313Z,2.15
2023-03-10T05:11:52.729Z,2.08
2023-03-10T05:14:21.029Z,2.17
2023-03-10T05:16:50.006Z,2.13
2023-03-10T05:19:18.805Z,2.10
2023-03-10T05:21:47.508Z,1.88
2023-03-10T05:24:16.640Z,3.78
2023-03-10T05:26:45.055Z,4.63
2023-03-10T05:29:13.432Z,5.03
2023-03-10T05:31:46.376Z,4.75
2023-03-10T05:34:23.924Z,4.95
2023-03-10T05:36:53.754Z,5.07
2023-03-10T05:39:22.075Z,4.43
2023-03-10T05:41:53.106Z,4.90
2023-03-10T05:44:22.992Z,4.10
2023-03-10T05:46:51.808Z,4.28
2023-03-10T05:49:21.186Z,4.07
2023-03-10T05:51:49.906Z,3.30
2023-03-10T05:54:19.355Z,3.72
2023-03-10T05:56:48.148Z,4.03
2023-03-10T05:59:16.472Z,3.90
2023-03-10T06:01:45.041Z,3.70
2023-03-10T06:04:13.285Z,3.50
2023-03-10T06:06:41.697Z,3.83
2023-03-10T06:09:10.068Z,3.95
2023-03-10T06:11:38.394Z,3.22
2023-03-10T06:14:06.787Z,3.50
2023-03-10T06:16:35.033Z,3.30
2023-03-10T06:19:03.435Z,3.83
2023-03-10T06:21:31.680Z,3.50
2023-03-10T06:24:00.786Z,3.33
2023-03-10T06:26:28.866Z,3.40
2023-03-10T06:28:57.199Z,3.15
2023-03-10T06:31:26.334Z,2.83
2023-03-10T06:33:55.034Z,2.88
2023-03-10T06:36:26.394Z,3.20
2023-03-10T06:38:55.603Z,3.05
2023-03-10T06:41:24.242Z,3.00
2023-03-10T06:43:52.799Z,3.30
2023-03-10T06:46:21.633Z,3.08
2023-03-10T06:48:50.392Z,2.95
2023-03-10T06:51:20.556Z,2.88
2023-03-10T06:53:49.922Z,3.20
2023-03-10T06:56:22.712Z,3.15
2023-03-10T06:58:51.284Z,2.90
2023-03-10T07:01:33.877Z,2.58
2023-03-10T07:04:02.712Z,3.05
2023-03-10T07:06:31.197Z,2.80
2023-03-10T07:08:59.911Z,3.03
2023-03-10T07:11:28.548Z,2.80
2023-03-10T07:13:56.976Z,2.95
2023-03-10T07:16:25.378Z,2.72
2023-03-10T07:18:53.591Z,2.60
2023-03-10T07:21:22.631Z,2.88
2023-03-10T07:23:51.346Z,2.45
2023-03-10T07:26:20.067Z,2.95
2023-03-10T07:28:48.791Z,2.47
2023-03-10T07:31:17.738Z,2.95
2023-03-10T07:33:46.394Z,2.55
2023-03-10T07:36:17.206Z,2.60
2023-03-10T07:38:45.669Z,2.47
2023-03-10T07:41:19.909Z,2.72
2023-03-10T07:43:51.840Z,3.03
2023-03-10T07:46:21.285Z,2.65
2023-03-10T07:48:49.939Z,2.65
2023-03-10T07:51:18.158Z,2.70
2023-03-10T07:53:46.629Z,2.75
2023-03-10T07:56:15.752Z,2.58
2023-03-10T07:58:44.392Z,2.55
2023-03-10T08:01:18.639Z,2.53
2023-03-10T08:03:47.834Z,2.83
2023-03-10T08:06:22.232Z,2.40
2023-03-10T08:08:51.511Z,2.47
2023-03-10T08:11:20.832Z,2.63
2023-03-10T08:13:49.602Z,2.13
2023-03-10T08:16:19.893Z,2.22
2023-03-10T08:18:53.669Z,2.30
2023-03-10T08:21:22.411Z,2.40
2023-03-10T08:23:50.546Z,2.22
2023-03-10T08:26:19.670Z,2.10
2023-03-10T08:28:48.227Z,2.50
2023-03-10T08:31:20.209Z,2.50
2023-03-10T08:33:49.231Z,2.25
2023-03-10T08:36:22.620Z,2.42
2023-03-10T08:38:52.886Z,2.40
2023-03-10T08:45:46.548Z,2.03
2023-03-10T08:48:14.950Z,2.30
2023-03-10T08:50:43.755Z,2.10
2023-03-10T08:53:13.110Z,2.15
2023-03-10T08:55:42.098Z,1.98
2023-03-10T08:58:10.549Z,2.40
2023-03-10T09:00:43.350Z,1.90
2023-03-10T09:03:14.391Z,2.67
2023-03-10T09:14:47.350Z,1.90
2023-03-10T09:17:15.829Z,2.00
2023-03-10T09:19:44.311Z,2.00
2023-03-10T09:22:12.650Z,2.03
2023-03-10T09:24:40.955Z,1.98
2023-03-10T09:27:09.270Z,2.10
2023-03-10T09:29:43.122Z,2.00
2023-03-10T09:32:12.125Z,2.40
2023-03-10T09:39:11.292Z,3.08
2023-03-10T09:41:47.673Z,2.42
2023-03-10T09:44:44.014Z,2.72
2023-03-10T09:47:57.480Z,2.15
2023-03-10T09:50:43.910Z,2.47
2023-03-10T09:57:43.512Z,2.22
2023-03-10T10:00:19.278Z,2.30
2023-03-10T10:02:50.459Z,2.60
2023-03-10T10:05:26.790Z,2.28
2023-03-10T10:07:57.852Z,2.47
2023-03-10T10:10:33.049Z,2.40
2023-03-10T10:13:15.484Z,2.13
2023-03-10T10:16:07.280Z,2.28
2023-03-10T10:18:46.741Z,2.33
2023-03-10T10:21:26.032Z,2.40
2023-03-10T10:23:56.786Z,2.15
2023-03-10T10:26:29.675Z,2.38
2023-03-10T10:29:16.386Z,2.15
2023-03-10T10:32:10.180Z,2.40
2023-03-10T10:34:41.118Z,2.65
2023-03-10T10:37:30.305Z,1.88
2023-03-10T10:40:00.617Z,2.47
2023-03-10T10:42:30.149Z,2.58
2023-03-10T10:45:00.227Z,2.17
2023-03-10T10:47:30.790Z,2.08
2023-03-10T10:50:35.290Z,2.30
2023-03-10T10:53:24.737Z,2.40
2023-03-10T10:56:02.952Z,2.35
2023-03-10T10:58:35.574Z,1.88
2023-03-10T11:01:09.684Z,1.98
2023-03-10T11:03:49.351Z,2.10
2023-03-10T11:06:35.603Z,2.20
2023-03-10T11:09:18.553Z,2.00
2023-03-10T11:12:08.720Z,2.22
2023-03-10T11:15:02.103Z,2.00
2023-03-10T11:17:43.431Z,2.03
2023-03-10T11:20:33.118Z,2.30
2023-03-10T11:23:25.871Z,2.20
2023-03-10T11:26:08.313Z,2.35
2023-03-10T11:28:55.034Z,2.20
2023-03-10T11:31:59.328Z,1.92
2023-03-10T11:34:33.272Z,1.77
2023-03-10T11:37:52.793Z,2.20
2023-03-10T11:40:48.798Z,1.98
2023-03-10T11:43:26.238Z,1.92
2023-03-10T11:45:57.101Z,2.05
2023-03-10T11:48:38.631Z,2.45
2023-03-10T11:51:11.355Z,2.38
2023-03-10T11:53:59.112Z,2.33
2023-03-10T11:56:28.793Z,1.98
2023-03-10T11:59:08.709Z,2.22
2023-03-10T12:02:20.173Z,2.10
2023-03-10T12:04:53.915Z,2.13
2023-03-10T12:07:30.394Z,2.00
2023-03-10T12:10:02.876Z,2.15
2023-03-10T12:12:37.030Z,2.38
2023-03-10T12:15:20.715Z,2.20
2023-03-10T12:17:49.832Z,1.75
2023-03-10T12:20:18.235Z,2.03
2023-03-10T12:22:47.523Z,1.65
2023-03-10T12:25:30.808Z,2.10
2023-03-10T12:28:17.159Z,2.00
2023-03-10T12:31:02.704Z,1.90
2023-03-10T12:33:41.670Z,2.13
2023-03-10T12:36:39.908Z,2.22
2023-03-10T12:39:27.028Z,2.13
2023-03-10T12:42:00.554Z,2.25
2023-03-10T12:44:37.988Z,1.98
2023-03-10T12:47:09.165Z,2.38
2023-03-10T12:49:58.311Z,1.95
2023-03-10T12:52:41.506Z,1.90
2023-03-10T12:55:29.451Z,2.20
2023-03-10T12:58:23.751Z,2.30
2023-03-10T13:01:04.350Z,1.98
2023-03-10T13:03:42.255Z,2.15
2023-03-10T13:06:13.830Z,1.80
2023-03-10T13:08:47.827Z,2.05
2023-03-10T13:11:18.951Z,2.10
2023-03-10T13:14:00.332Z,1.90
2023-03-10T13:16:30.113Z,2.17
2023-03-10T13:19:00.958Z,2.03
2023-03-10T13:21:38.392Z,2.00
2023-03-10T13:24:25.313Z,2.30
2023-03-10T13:27:05.352Z,2.30
2023-03-10T13:29:34.165Z,2.20
2023-03-10T13:32:02.702Z,2.20
2023-03-10T13:34:33.917Z,2.45
2023-03-10T13:37:11.913Z,2.30
2023-03-10T13:39:40.553Z,2.40
2023-03-10T13:42:28.455Z,2.28
2023-03-10T13:45:13.283Z,2.47
2023-03-10T13:47:43.224Z,2.30
2023-03-10T13:50:16.477Z,2.15
2023-03-10T13:52:57.768Z,2.22
2023-03-10T13:55:27.754Z,2.10
2023-03-10T13:57:58.319Z,2.40
2023-03-10T14:00:27.838Z,2.28
2023-03-10T14:02:56.792Z,2.33
2023-03-10T14:05:54.557Z,2.30
2023-03-10T14:08:29.114Z,2.40
2023-03-10T14:11:32.726Z,1.90
2023-03-10T14:14:02.336Z,2.00
2023-03-10T14:16:56.548Z,2.10
2023-03-10T14:22:25.187Z,1.70
2023-03-10T14:24:53.587Z,1.88
2023-03-10T14:27:22.316Z,1.85
2023-03-10T14:29:53.667Z,2.08
2023-03-10T14:32:23.101Z,2.03
2023-03-10T14:34:51.752Z,1.80
2023-03-10T14:37:20.387Z,2.00
2023-03-10T14:39:48.647Z,1.92
2023-03-10T14:42:31.035Z,1.60
2023-03-10T14:45:09.671Z,2.10
2023-03-10T14:47:38.131Z,1.70
2023-03-10T14:50:06.706Z,1.67
2023-03-10T14:52:35.026Z,1.30
2023-03-10T14:55:08.310Z,1.48
2023-03-10T14:57:37.677Z,1.65
2023-03-10T15:00:12.955Z,1.75
2023-03-10T15:02:41.266Z,1.90
2023-03-10T15:05:16.390Z,2.05
2023-03-10T15:07:45.675Z,1.77
2023-03-10T15:10:14.960Z,1.67
2023-03-10T15:12:44.603Z,1.55
2023-03-10T15:15:18.874Z,1.70
2023-03-10T15:17:47.671Z,1.50
2023-03-10T15:20:21.678Z,1.60
2023-03-10T15:22:51.833Z,1.48
2023-03-10T15:25:21.831Z,1.65
2023-03-10T15:27:52.164Z,1.27
2023-03-10T15:30:22.314Z,1.40
2023-03-10T15:32:51.172Z,1.60
2023-03-10T15:35:21.991Z,1.50
2023-03-10T15:37:51.835Z,1.40
2023-03-10T15:40:28.869Z,1.45
2023-03-10T15:42:58.554Z,1.65
2023-03-10T15:45:30.149Z,1.38
2023-03-10T15:47:58.787Z,1.65
2023-03-10T15:50:27.835Z,1.50
2023-03-10T15:52:58.401Z,1.63
2023-03-10T15:55:28.555Z,1.75
2023-03-10T15:57:57.987Z,1.20
2023-03-10T16:00:27.518Z,1.10
2023-03-10T16:02:55.990Z,1.50
2023-03-10T16:05:24.315Z,1.20
2023-03-10T16:07:52.469Z,0.95
2023-03-10T16:10:21.601Z,1.15
2023-03-10T16:12:49.993Z,1.10
2023-03-10T16:15:18.638Z,1.17
2023-03-10T16:22:18.710Z,1.30
2023-03-10T16:24:47.051Z,1.13
2023-03-10T16:27:16.870Z,1.42
2023-03-10T16:29:45.510Z,1.08
2023-03-10T16:32:15.275Z,1.20
2023-03-10T16:34:43.673Z,1.13
2023-03-10T16:37:12.065Z,1.00
2023-03-10T16:39:40.393Z,1.20
2023-03-10T16:42:08.546Z,1.30
2023-03-10T16:44:36.784Z,1.30
2023-03-10T16:47:05.100Z,1.10
2023-03-10T16:49:33.425Z,1.50
2023-03-10T16:52:03.429Z,1.10
2023-03-10T16:54:31.905Z,1.08
2023-03-10T16:57:01.824Z,1.30
2023-03-10T16:59:31.106Z,1.20
2023-03-10T17:01:59.347Z,0.88
2023-03-10T17:04:28.547Z,1.17
2023-03-10T17:06:56.870Z,1.23
2023-03-10T17:09:25.345Z,1.20
2023-03-10T17:11:55.465Z,1.27
2023-03-10T17:14:24.463Z,1.00
2023-03-10T17:16:55.719Z,1.35
2023-03-10T17:19:29.026Z,1.30
2023-03-10T17:21:58.629Z,1.63
2023-03-10T17:24:27.669Z,1.20
2023-03-10T17:26:56.001Z,0.90
2023-03-10T17:29:24.389Z,1.20
2023-03-10T17:31:52.643Z,0.90
2023-03-10T17:34:21.027Z,0.93
2023-03-10T17:36:52.616Z,0.90
2023-03-10T17:39:23.110Z,0.90
2023-03-10T17:41:51.687Z,1.00
2023-03-10T17:44:20.084Z,1.20
2023-03-10T17:46:48.876Z,1.10
2023-03-10T17:49:18.473Z,1.05
2023-03-10T17:51:47.353Z,1.08
2023-03-10T17:54:21.190Z,1.10
2023-03-10T17:56:50.473Z,1.50
2023-03-10T17:59:20.311Z,1.13
2023-03-10T18:01:49.914Z,0.90
2023-03-10T18:04:18.475Z,1.08
2023-03-10T18:06:46.791Z,1.27
2023-03-10T18:09:15.838Z,1.23
2023-03-10T18:11:44.233Z,1.10
2023-03-10T18:14:12.475Z,1.13
2023-03-10T18:16:41.352Z,1.00
2023-03-10T18:19:11.272Z,1.33
2023-03-10T18:21:39.741Z,1.08
2023-03-10T18:24:09.034Z,1.02
2023-03-10T18:26:38.401Z,0.90
2023-03-10T18:29:06.853Z,1.20
2023-03-10T18:31:35.352Z,1.00
2023-03-10T18:34:04.738Z,1.10
2023-03-10T18:36:33.636Z,0.80
2023-03-10T18:39:04.235Z,1.20
2023-03-10T18:41:33.190Z,0.70
2023-03-10T18:44:02.082Z,0.85
2023-03-10T18:46:30.859Z,1.20
2023-03-10T18:48:59.213Z,1.10
2023-03-10T18:51:28.876Z,1.25
2023-03-10T18:53:57.761Z,1.23
2023-03-10T18:56:29.336Z,1.13
2023-03-10T18:58:57.854Z,1.00
2023-03-10T19:01:27.344Z,0.73
2023-03-10T19:03:55.457Z,1.13
2023-03-10T19:06:23.328Z,1.13
2023-03-10T19:08:53.350Z,0.90
2023-03-10T19:11:24.397Z,0.95
2023-03-10T19:13:52.720Z,1.30
2023-03-10T19:16:21.944Z,1.00
2023-03-10T19:18:50.249Z,1.35
2023-03-10T19:21:18.390Z,1.05
2023-03-10T19:23:46.872Z,0.90
2023-03-10T19:26:15.753Z,1.17
2023-03-10T19:28:43.841Z,0.95
2023-03-10T19:31:15.140Z,1.10
2023-03-10T19:33:43.677Z,1.20
2023-03-10T19:36:13.280Z,0.95
2023-03-10T19:38:43.092Z,1.05
2023-03-10T19:41:17.108Z,1.20
2023-03-10T19:43:46.739Z,0.88
2023-03-10T19:46:16.248Z,1.10
2023-03-10T19:48:44.739Z,1.08
2023-03-10T19:51:25.432Z,1.20
2023-03-10T19:53:55.050Z,1.10
2023-03-10T19:56:25.677Z,1.05
2023-03-10T19:58:54.331Z,1.15
2023-03-10T20:01:26.263Z,1.17
2023-03-10T20:03:57.755Z,1.30
2023-03-10T20:06:26.791Z,1.20
2023-03-10T20:08:54.899Z,0.95
2023-03-10T20:11:23.510Z,0.98
2023-03-10T20:13:54.313Z,0.98
2023-03-10T20:16:24.496Z,1.02
2023-03-10T20:18:53.267Z,1.08
2023-03-10T20:21:21.588Z,0.90
2023-03-10T20:23:49.849Z,1.10
2023-03-10T20:26:19.193Z,0.90
2023-03-10T20:28:49.917Z,0.90
2023-03-10T20:31:25.727Z,1.00
2023-03-10T20:33:54.549Z,1.20
2023-03-10T20:36:22.958Z,1.08
2023-03-10T20:38:51.304Z,0.73
2023-03-10T20:41:20.391Z,1.05
2023-03-10T20:43:49.351Z,0.90
2023-03-10T20:46:19.658Z,1.08
2023-03-10T20:48:51.187Z,0.90
2023-03-10T20:51:19.524Z,1.38
2023-03-10T20:53:47.841Z,0.88
2023-03-10T20:56:17.441Z,0.90
2023-03-10T20:58:45.309Z,0.77
2023-03-10T21:01:18.912Z,1.20
2023-03-10T21:03:47.393Z,1.20
2023-03-10T21:06:15.589Z,1.17
2023-03-10T21:08:43.907Z,0.80
2023-03-10T21:11:11.729Z,0.90
2023-03-10T21:13:41.266Z,1.13
2023-03-10T21:16:10.305Z,1.02
2023-03-10T21:18:38.309Z,1.25
2023-03-10T21:21:09.836Z,1.20
2023-03-10T21:23:46.628Z,1.10
2023-03-10T21:26:18.045Z,1.00
2023-03-10T21:28:46.430Z,1.15
2023-03-10T21:31:15.473Z,0.98
2023-03-10T21:33:44.002Z,1.08
2023-03-10T21:36:15.699Z,0.90
2023-03-10T21:38:44.393Z,0.80
2023-03-10T21:41:16.318Z,0.98
2023-03-10T21:43:44.889Z,1.10
2023-03-10T21:46:13.266Z,1.08
2023-03-10T21:48:42.132Z,1.08
2023-03-10T21:51:14.882Z,1.13
2023-03-10T21:53:43.264Z,0.98
2023-03-10T21:56:12.011Z,1.20
2023-03-10T21:58:40.233Z,0.80
2023-03-10T22:01:08.602Z,0.93
2023-03-10T22:03:36.383Z,1.08
2023-03-10T22:06:05.091Z,1.33
2023-03-10T22:08:34.900Z,1.02
2023-03-10T22:11:04.173Z,0.98
2023-03-10T22:13:32.184Z,0.98
2023-03-10T22:16:01.312Z,1.10
2023-03-10T22:18:29.131Z,0.93
2023-03-10T22:20:56.974Z,1.20
2023-03-10T22:23:24.749Z,1.20
2023-03-10T22:25:52.607Z,1.23
2023-03-10T22:28:20.328Z,0.82
2023-03-10T22:30:48.152Z,1.17
2023-03-10T22:33:15.907Z,1.05
2023-03-10T22:35:47.599Z,1.17
2023-03-10T22:38:15.424Z,1.40
2023-03-10T22:40:43.520Z,1.23
2023-03-10T22:43:11.447Z,1.02
2023-03-10T22:45:39.622Z,0.90
2023-03-10T22:48:07.503Z,0.80
2023-03-10T22:50:41.197Z,0.90
2023-03-10T22:53:14.037Z,1.10
2023-03-10T22:55:43.697Z,1.33
2023-03-10T22:58:11.453Z,0.90
2023-03-10T23:00:40.241Z,0.80
2023-03-10T23:03:09.167Z,0.60
2023-03-10T23:05:38.217Z,0.90
2023-03-10T23:08:07.153Z,0.80
2023-03-10T23:10:36.387Z,1.13
2023-03-10T23:13:08.110Z,1.02
2023-03-10T23:15:38.063Z,1.10
2023-03-10T23:18:07.066Z,1.00
2023-03-10T23:20:42.287Z,1.30
2023-03-10T23:23:13.173Z,1.10
2023-03-10T23:25:43.457Z,0.90
2023-03-10T23:28:11.583Z,1.15
2023-03-10T23:30:41.296Z,1.02
2023-03-10T23:33:13.545Z,1.17
2023-03-10T23:35:41.357Z,0.95
2023-03-10T23:38:09.606Z,0.98
2023-03-10T23:40:37.301Z,0.80
2023-03-10T23:43:07.035Z,1.35
2023-03-10T23:45:36.832Z,1.00
2023-03-10T23:48:07.827Z,0.90
2023-03-10T23:50:38.843Z,0.90
2023-03-10T23:53:08.571Z,0.88
2023-03-10T23:55:41.009Z,0.85
2023-03-10T23:58:10.419Z,0.95
